Jupiter Spirit — A8ZC2 — position and weather

sailwx.info

Track history (hours):
 
Tides and Currents Weather Stations Pressure Air Temp Water Temp Dewpoint Dewpoint Depression Visibility Wind Speed Wind Dir Waves Ship Positions

Jupiter Spirit

Last reported at 2014-Aug-08 06:22 UTC. Time now 2014-Aug-27 17:13 UTC.
Position S 30°30' E 031°03'.
Warning: this ship's position is 19 days out of date.

Length 183 m; draft 8.2 m.

Type: Cargo ship. MMSI: 636015173.

Date/timePositionNaut miles runAvg speedWind from/ knotsBaromVisibWave heightAir tempDewpointWater temp
2014-Aug-08 06:22S 30°30' E 031°03'3414.6
2014-Aug-08 04:04S 30°57' E 030°40'9215.9
2014-Aug-07 22:16S 32°05' E 029°27'1113.4
2014-Aug-07 21:27S 32°12' E 029°17'45614.3
2014-Aug-06 13:30S 35°09' E 020°53'1415.1
2014-Aug-06 12:33S 35°08' E 020°35'1515.3
2014-Aug-06 11:33S 35°04' E 020°17'1615.5
2014-Aug-06 10:31S 34°59' E 019°59'1615.5
2014-Aug-06 09:30S 34°55' E 019°40'1615.2
2014-Aug-06 08:27S 34°48' E 019°22'1916.0
2014-Aug-06 07:14S 34°40' E 019°01'1015.0
2014-Aug-06 06:34S 34°35' E 018°50'1514.7
2014-Aug-06 05:34S 34°29' E 018°34'1414.4
2014-Aug-06 04:33S 34°21' E 018°19'1413.9
2014-Aug-06 03:33S 34°09' E 018°10'3014.9
2014-Aug-06 01:33S 33°43' E 017°53'  
Track history (hours):
 
Tides and Currents Weather Stations Pressure Air Temp Water Temp Dewpoint Dewpoint Depression Visibility Wind Speed Wind Dir Waves Ship Positions

Jupiter Spirit

Last reported at 2014-Aug-08 06:22 UTC. Time now 2014-Aug-27 17:13 UTC.
Position S 30°30' E 031°03'.
Warning: this ship's position is 19 days out of date.

Length 183 m; draft 8.2 m.

Type: Cargo ship. MMSI: 636015173.

Date/timePositionNaut miles runAvg speedWind from/ knotsBaromVisibWave heightAir tempDewpointWater temp
2014-Aug-08 06:22S 30°30' E 031°03'3414.6
2014-Aug-08 04:04S 30°57' E 030°40'9215.9
2014-Aug-07 22:16S 32°05' E 029°27'1113.4
2014-Aug-07 21:27S 32°12' E 029°17'45614.3
2014-Aug-06 13:30S 35°09' E 020°53'1415.1
2014-Aug-06 12:33S 35°08' E 020°35'1515.3
2014-Aug-06 11:33S 35°04' E 020°17'1615.5
2014-Aug-06 10:31S 34°59' E 019°59'1615.5
2014-Aug-06 09:30S 34°55' E 019°40'1615.2
2014-Aug-06 08:27S 34°48' E 019°22'1916.0
2014-Aug-06 07:14S 34°40' E 019°01'1015.0
2014-Aug-06 06:34S 34°35' E 018°50'1514.7
2014-Aug-06 05:34S 34°29' E 018°34'1414.4
2014-Aug-06 04:33S 34°21' E 018°19'1413.9
2014-Aug-06 03:33S 34°09' E 018°10'3014.9
2014-Aug-06 01:33S 33°43' E 017°53'  

Dump ship's entire track history